Archival Weather

Prince Abdulmajeed Bin Abdula

Prince Abdulmajeed Bin Abdula, Saudi Arabia (OEAO)

Report from: Monday, May 23, 2022 6:00 AM UTC
Current time: Tuesday, August 16, 2022 7:31 AM UTC

Current weather
Weather history
Weather forecast

Temperature28.0°C (82.4°F)
Heat index26.8°C (80.3°F)
Dew point1.0°C (33.8°F)
Winds 14 kts (7.2 m/s, 16.1 mph) North-Northeast (30°)
Clouds Sky clear
Altimeter29.88 in.Hg (1012 mB)
Relative humidity17 %
Density altitude1,641 ft. (500 m)
Remarks Ceiling and visibility OK
No significant changes expected in the next two hours
Flight conditions Visual Meteorological Conditions
Raw dataOEAO 230600Z 03014KT CAVOK 28/01 Q1012 NOSIG
An error has occurred. This application may no longer respond until reloaded. Reload 🗙